Flight Track Log - Related Links

Times and Time Zones

All times are in EDT time to prevent confusion due to time zone crossing. See the AFL150 flight status page for this flight to view local times or setup timezone preferences in your user account.

Time Position Orientation Groundspeed Altitude Reporting Facility
EDT Latitude Longitude Course Direction KTS km/h feet Rate Location/Type
Sun 11:08:00 61.1846 -29.0700 307° West  Level Estimated
Sun 11:09:00 61.1405 -29.2988 248° West  Level Estimated
Sun 11:10:00 61.0960 -29.5272 248° West  Level Estimated
Sun 11:11:00 61.0511 -29.7549 248° West  Level Estimated
Sun 11:12:00 61.0059 -29.9820 248° West  Level Estimated
Sun 11:13:00 60.9602 -30.2085 248° West  Level Estimated
Sun 11:14:00 60.9142 -30.4343 247° West  Level Estimated
Sun 11:15:00 60.8678 -30.6594 247° West  Level Estimated
Sun 11:16:00 60.8211 -30.8839 247° West  Level Estimated
Sun 11:17:00 60.7739 -31.1077 247° West  Level Estimated
Sun 11:18:00 60.7264 -31.3309 247° West  Level Estimated
Sun 11:19:00 60.6785 -31.5534 246° West  Level Estimated
Sun 11:20:00 60.6303 -31.7752 246° West  Level Estimated
Sun 11:21:00 60.5817 -31.9964 246° West  Level Estimated
Sun 11:22:00 60.5327 -32.2169 246° West  Level Estimated
Sun 11:23:00 60.4833 -32.4368 246° West  Level Estimated
Sun 11:24:00 60.4336 -32.6559 245° Southwest  Level Estimated
Sun 11:25:00 60.3836 -32.8745 245° Southwest  Level Estimated
Sun 11:26:00 60.3331 -33.0923 245° Southwest  Level Estimated
Sun 11:27:00 60.2824 -33.3094 245° Southwest  Level Estimated
Sun 11:28:00 60.2312 -33.5259 245° Southwest  Level Estimated
Sun 11:29:00 60.1798 -33.7417 244° Southwest  Level Estimated
Sun 11:30:00 60.1279 -33.9568 244° Southwest  Level Estimated
Sun 11:31:00 60.0757 -34.1713 244° Southwest  Level Estimated
Sun 11:32:00 60.0232 -34.3850 244° Southwest  Level Estimated
Sun 11:33:00 59.9704 -34.5981 244° Southwest  Level Estimated
Sun 11:34:00 59.9171 -34.8105 244° Southwest  Level Estimated
Sun 11:35:00 59.8636 -35.0222 243° Southwest  Level Estimated
Sun 11:36:00 59.8097 -35.2333 243° Southwest  Level Estimated
Sun 11:37:00 59.7555 -35.4436 243° Southwest  Level Estimated
Sun 11:38:00 59.7009 -35.6533 243° Southwest  Level Estimated
Sun 11:39:00 59.6460 -35.8623 243° Southwest  Level Estimated
Sun 11:40:00 59.5908 -36.0706 242° Southwest  Level Estimated
Sun 11:41:00 59.5353 -36.2782 242° Southwest  Level Estimated
Sun 11:42:00 59.4794 -36.4851 242° Southwest  Level Estimated
Sun 11:43:00 59.4232 -36.6914 242° Southwest  Level Estimated
Sun 11:44:00 59.3666 -36.8969 242° Southwest  Level Estimated
Sun 11:45:00 59.3098 -37.1018 242° Southwest  Level Estimated
Sun 11:46:00 59.2526 -37.3060 241° Southwest  Level Estimated
Sun 11:47:00 59.1951 -37.5095 241° Southwest  Level Estimated
Sun 11:48:00 59.1373 -37.7123 241° Southwest  Level Estimated
Sun 11:49:00 59.0792 -37.9145 241° Southwest  Level Estimated
Sun 11:50:00 59.0207 -38.1159 241° Southwest  Level Estimated
Sun 11:51:00 58.9620 -38.3167 240° Southwest  Level Estimated
Sun 11:52:00 58.9029 -38.5168 240° Southwest  Level Estimated
Sun 11:53:00 58.8436 -38.7161 240° Southwest  Level Estimated
Sun 11:54:00 58.7839 -38.9148 240° Southwest  Level Estimated
Sun 11:55:00 58.7239 -39.1129 240° Southwest  Level Estimated
Sun 11:56:00 58.6636 -39.3102 240° Southwest  Level Estimated
Sun 11:57:00 58.6030 -39.5069 239° Southwest  Level Estimated
Sun 11:58:00 58.5422 -39.7029 239° Southwest  Level Estimated
Sun 11:59:00 58.4810 -39.8982 239° Southwest  Level Estimated
Sun 12:00:00 58.4195 -40.0928 239° Southwest  Level Estimated
Sun 12:01:00 58.3577 -40.2867 239° Southwest  Level Estimated
Sun 12:02:00 58.2957 -40.4800 239° Southwest  Level Estimated
Sun 12:03:00 58.2333 -40.6725 238° Southwest  Level Estimated
Sun 12:04:00 58.1707 -40.8644 238° Southwest  Level Estimated
Sun 12:05:00 58.1078 -41.0557 238° Southwest  Level Estimated
Sun 12:06:00 58.0446 -41.2462 238° Southwest  Level Estimated
Sun 12:07:00 57.9810 -41.4361 238° Southwest  Level Estimated
Sun 12:08:00 57.9173 -41.6253 238° Southwest  Level Estimated
Sun 12:09:00 57.8532 -41.8138 237° Southwest  Level Estimated
Sun 12:10:00 57.7889 -42.0017 237° Southwest  Level Estimated
Sun 12:11:00 57.7243 -42.1889 237° Southwest  Level Estimated
Sun 12:12:00 57.6594 -42.3754 237° Southwest  Level Estimated
Sun 12:13:00 57.5942 -42.5612 237° Southwest  Level Estimated
Sun 12:14:00 57.5288 -42.7464 237° Southwest  Level Estimated
Sun 12:15:00 57.4631 -42.9309 237° Southwest  Level Estimated
Sun 12:16:00 57.3971 -43.1148 236° Southwest  Level Estimated
Sun 12:17:00 57.3309 -43.2980 236° Southwest  Level Estimated
Sun 12:18:00 57.2644 -43.4805 236° Southwest  Level Estimated
Sun 12:19:00 57.1976 -43.6624 236° Southwest  Level Estimated
Sun 12:20:00 57.1306 -43.8436 236° Southwest  Level Estimated
Sun 12:21:00 57.0633 -44.0242 236° Southwest  Level Estimated
Sun 12:22:00 56.9957 -44.2041 235° Southwest  Level Estimated
Sun 12:23:00 56.9279 -44.3834 235° Southwest  Level Estimated
Sun 12:24:00 56.8599 -44.5620 235° Southwest  Level Estimated
Sun 12:25:00 56.7915 -44.7399 235° Southwest  Level Estimated
Sun 12:26:00 56.7230 -44.9172 235° Southwest  Level Estimated
Sun 12:27:00 56.6542 -45.0939 235° Southwest  Level Estimated
Sun 12:28:00 56.5851 -45.2699 235° Southwest  Level Estimated
Sun 12:29:00 56.5158 -45.4452 234° Southwest  Level Estimated
Sun 12:30:00 56.4462 -45.6200 234° Southwest  Level Estimated
Sun 12:31:00 56.3764 -45.7941 234° Southwest  Level Estimated
Sun 12:32:00 56.3064 -45.9675 234° Southwest  Level Estimated
Sun 12:33:00 56.2361 -46.1403 234° Southwest  Level Estimated
Sun 12:34:00 56.1655 -46.3125 234° Southwest  Level Estimated
Sun 12:35:00 56.0948 -46.4841 234° Southwest  Level Estimated
Sun 12:36:00 56.0238 -46.6550 233° Southwest  Level Estimated
Sun 12:37:00 55.9525 -46.8253 233° Southwest  Level Estimated
Sun 12:38:00 55.8811 -46.9949 233° Southwest  Level Estimated
Sun 12:39:00 55.8093 -47.1640 233° Southwest  Level Estimated
Sun 12:40:00 55.7374 -47.3324 233° Southwest  Level Estimated
Sun 12:41:00 55.6652 -47.5002 233° Southwest  Level Estimated
Sun 12:42:00 55.5928 -47.6673 233° Southwest  Level Estimated
Sun 12:43:00 55.5202 -47.8339 232° Southwest  Level Estimated
Sun 12:44:00 55.4474 -47.9998 232° Southwest  Level Estimated
Sun 12:45:00 55.3743 -48.1652 232° Southwest  Level Estimated
Sun 12:46:00 55.3010 -48.3299 232° Southwest  Level Estimated
Sun 12:47:00 55.2275 -48.4940 232° Southwest  Level Estimated
Sun 12:48:00 55.1538 -48.6575 232° Southwest  Level Estimated
Sun 12:49:00 55.0798 -48.8204 232° Southwest  Level Estimated
Sun 12:50:00 55.0056 -48.9827 231° Southwest  Level Estimated
Sun 12:51:00 54.9313 -49.1444 231° Southwest  Level Estimated
Sun 12:52:00 54.8567 -49.3055 231° Southwest  Level Estimated
Sun 12:53:00 54.7818 -49.4660 231° Southwest  Level Estimated
Sun 12:54:00 54.7068 -49.6259 231° Southwest  Level Estimated
Sun 12:55:00 54.6316 -49.7853 231° Southwest  Level Estimated
Sun 12:56:00 54.5562 -49.9440 231° Southwest  Level Estimated
Sun 12:57:00 54.4805 -50.1021 231° Southwest  Level Estimated
Sun 12:58:00 54.4047 -50.2597 230° Southwest  Level Estimated
Sun 12:59:00 54.3286 -50.4167 230° Southwest  Level Estimated
Sun 13:00:00 54.2523 -50.5731 230° Southwest  Level Estimated
Sun 13:01:00 54.1759 -50.7289 230° Southwest  Level Estimated
Sun 13:02:00 54.0992 -50.8841 230° Southwest  Level Estimated
Sun 13:03:00 54.0224 -51.0388 230° Southwest  Level Estimated
Sun 13:04:00 53.9453 -51.1929 230° Southwest  Level Estimated
Sun 13:05:00 53.8680 -51.3464 230° Southwest  Level Estimated
Sun 13:06:00 53.7906 -51.4994 229° Southwest  Level Estimated
Sun 13:07:00 53.7130 -51.6518 229° Southwest  Level Estimated
Sun 13:08:00 53.6351 -51.8036 229° Southwest  Level Estimated
Sun 13:09:00 53.5571 -51.9549 229° Southwest  Level Estimated
Sun 13:10:00 53.4789 -52.1056 229° Southwest  Level Estimated
Sun 13:11:00 53.4005 -52.2558 229° Southwest  Level Estimated
Sun 13:12:00 53.3219 -52.4054 229° Southwest  Level Estimated
Sun 13:13:00 53.2431 -52.5545 229° Southwest  Level Estimated
Sun 13:14:00 53.1641 -52.7030 228° Southwest  Level Estimated
Sun 13:15:00 53.0840 -52.8527 228° Southwest  Level Estimated
Sun 13:16:00 53.0037 -53.0019 228° Southwest  Level Estimated
Sun 13:17:00 52.9232 -53.1506 228° Southwest  Level Estimated
Sun 13:17:32 59.3333 -56.0167 228° Southwest 440 814 36.000  Level Gander Center
Sun 13:18:00 52.8426 -53.2987 228° Southwest  Level Estimated
Sun 13:18:32 59.2667 -56.2333 239° Southwest 440 814 36.000  Level Gander Center
Sun 13:19:00 52.7617 -53.4462 228° Southwest  Level Estimated
Sun 13:19:32 59.1833 -56.4000 226° Southwest 430 797 36.000  Level Gander Center
Sun 13:20:00 52.6807 -53.5932 228° Southwest  Level Estimated
Sun 13:20:32 59.0833 -56.5500 218° Southwest 430 797 36.000  Level Gander Center
Sun 13:21:00 52.5994 -53.7397 228° Southwest  Level Estimated
Sun 13:21:32 58.9667 -56.6667 207° Southwest 440 814 36.000  Level Gander Center
Sun 13:22:00 52.5180 -53.8856 228° Southwest  Level Estimated
Sun 13:22:32 58.8833 -56.8000 220° Southwest 450 834 36.000  Level Gander Center
Sun 13:23:32 58.7833 -56.9500 218° Southwest 450 834 36.000  Level Gander Center
Sun 13:24:32 58.6667 -57.0833 211° Southwest 450 834 36.000  Level Gander Center
Sun 13:25:32 58.5500 -57.2000 208° Southwest 450 834 36.000  Level Gander Center
Sun 13:26:32 58.4833 -57.3333 226° Southwest 440 814 36.000  Level Gander Center
Sun 13:27:32 58.3500 -57.4667 208° Southwest 450 834 36.000  Level Gander Center
Sun 13:28:32 58.2500 -57.6000 215° Southwest 450 834 36.000  Level Gander Center
Sun 13:29:32 58.1500 -57.7500 218° Southwest 450 834 36.000  Level Gander Center
Sun 13:30:32 58.0500 -57.8500 208° Southwest 450 834 36.000  Level Gander Center
Sun 13:31:32 57.9333 -57.9833 211° Southwest 450 834 36.000  Level Gander Center
Sun 13:32:32 57.8333 -58.1167 215° Southwest 450 834 36.000  Level Gander Center
Sun 13:33:32 57.7167 -58.2500 211° Southwest 450 834 36.000  Level Gander Center
Sun 13:34:32 57.6167 -58.3833 216° Southwest 450 834 36.000  Level Gander Center
Sun 13:35:32 57.5000 -58.5167 212° Southwest 450 834 36.000  Level Gander Center
Sun 13:36:32 57.4167 -58.6167 213° Southwest 450 834 36.000  Level Gander Center
Sun 13:37:32 57.3000 -58.7500 212° Southwest 450 834 36.000  Level Gander Center
Sun 13:38:32 57.2000 -58.8833 216° Southwest 460 851 36.000  Level Gander Center
Sun 13:39:32 57.0833 -59.0167 212° Southwest 460 851 36.000  Level Gander Center
Sun 13:40:32 56.9833 -59.1333 212° Southwest 460 851 36.000  Level Gander Center
Sun 13:41:32 56.8667 -59.2667 212° Southwest 430 797 36.000  Level Gander Center
Sun 13:42:32 56.7667 -59.3667 209° Southwest 450 834 36.000  Level Gander Center
Sun 13:43:32 56.6500 -59.4833 209° Southwest 460 851 36.000  Level Gander Center
Sun 13:44:32 56.5667 -59.6167 221° Southwest 460 851 36.000  Level Gander Center
Sun 13:45:32 56.4500 -59.7500 212° Southwest 460 851 36.000  Level Gander Center
Sun 13:46:32 56.3333 -59.8667 209° Southwest 460 851 36.000  Level Gander Center
Sun 13:47:32 56.2333 -59.9833 213° Southwest 460 851 36.000  Level Gander Center
Sun 13:48:32 56.1167 -60.1167 213° Southwest 460 851 36.000  Level Gander Center
Sun 13:49:32 56.0167 -60.2333 213° Southwest 460 851 36.000  Level Gander Center
Sun 13:50:32 55.9000 -60.3667 213° Southwest 460 851 36.000  Level Gander Center
Sun 13:51:32 55.7833 -60.4500 202° Southwest 470 871 36.000  Level Gander Center
Sun 13:52:32 55.6833 -60.5667 213° Southwest 460 851 36.000  Level Gander Center
Sun 13:53:32 55.5667 -60.6833 209° Southwest 470 871 36.000  Level Gander Center
Sun 13:54:32 55.4500 -60.8167 213° Southwest 460 851 36.000  Level Gander Center
Sun 13:55:32 55.3333 -60.9333 210° Southwest 460 851 36.000  Level Gander Center
Sun 13:56:32 55.2333 -61.0500 214° Southwest 470 871 36.000  Level Gander Center
Sun 13:57:32 55.1167 -61.1667 210° Southwest 470 871 36.000  Level Gander Center
Sun 13:58:32 55.0000 -61.2833 210° Southwest 470 871 36.000  Level Gander Center
Sun 13:59:32 54.8833 -61.4000 210° Southwest 470 871 36.000  Level Gander Center
Sun 14:00:32 54.7833 -61.5167 214° Southwest 470 871 36.000  Level Gander Center
Sun 14:01:32 54.6667 -61.6000 202° Southwest 470 871 36.000  Level Gander Center
Sun 14:02:32 54.5500 -61.7500 217° Southwest 470 871 36.000  Level Gander Center
Sun 14:03:32 54.4500 -61.8333 206° Southwest 470 871 36.000  Level Gander Center
Sun 14:04:32 54.3167 -61.9667 210° Southwest 480 888 36.000  Level Gander Center
Sun 14:05:32 54.2167 -62.0500 206° Southwest 470 871 36.000  Level Gander Center
Sun 14:06:32 54.1000 -62.2000 217° Southwest 480 888 36.000  Level Gander Center
Sun 14:07:32 53.9833 -62.2833 203° Southwest 480 888 36.000  Level Gander Center
Sun 14:08:32 53.8667 -62.4167 214° Southwest 480 888 36.000  Level Gander Center
Sun 14:09:32 53.7333 -62.5333 207° Southwest 480 888 36.000  Level Gander Center
Sun 14:10:32 53.6167 -62.6333 207° Southwest 480 888 36.000  Level Gander Center
Sun 14:11:32 53.5000 -62.7500 211° Southwest 480 888 36.000  Level Gander Center
Sun 14:12:32 53.4000 -62.8167 202° Southwest 480 888 36.000  Level Gander Center
Sun 14:13:32 53.2667 -62.9667 214° Southwest 480 888 36.000  Level Gander Center
Sun 14:14:32 53.1667 -63.0667 211° Southwest 480 888 36.000  Level Gander Center
Sun 14:15:32 53.0500 -63.1667 207° Southwest 480 888 36.000  Level Gander Center
Sun 14:16:32 52.9333 -63.2833 211° Southwest 480 888 36.000  Level Gander Center
Sun 14:17:32 52.8167 -63.3833 207° Southwest 480 888 36.000  Level Gander Center
Sun 14:18:32 52.6833 -63.4833 204° Southwest 480 888 36.000  Level Gander Center
Sun 14:19:32 52.5667 -63.6000 211° Southwest 490 908 36.000  Level Gander Center
Sun 14:20:24 52.4667 -63.6833 207° Southwest 480 888 36.000  Level Moncton Center
Sun 14:21:24 52.3500 -63.8000 211° Southwest 480 888 36.000  Level Moncton Center
Sun 14:22:24 52.2333 -63.8833 204° Southwest 480 888 36.000  Level Moncton Center
Sun 14:23:24 52.1167 -63.9833 208° Southwest 480 888 36.000  Level Moncton Center
Sun 14:24:24 52.0000 -64.1000 212° Southwest 480 888 36.000  Level Moncton Center
Sun 14:25:24 51.8667 -64.2000 205° Southwest 480 888 36.000  Level Moncton Center
Sun 14:26:24 51.7500 -64.2833 204° Southwest 480 888 36.000  Level Moncton Center
Sun 14:27:24 51.6333 -64.4000 212° Southwest 480 888 36.000  Level Moncton Center
Sun 14:28:24 51.5167 -64.5000 208° Southwest 470 871 36.000  Level Moncton Center
Sun 14:29:24 51.4167 -64.5833 207° Southwest 470 871 36.000  Level Moncton Center
Sun 14:30:24 51.2833 -64.6833 205° Southwest 470 871 36.000  Level Moncton Center
Sun 14:31:24 51.1833 -64.8000 216° Southwest 470 871 36.000  Level Moncton Center
Sun 14:32:32 51.0500 -64.9000 205° Southwest 470 871 36.000  Level Gander Center
Sun 14:33:32 50.9333 -65.0000 208° Southwest 470 871 36.000  Level Gander Center
Sun 14:34:32 50.8167 -65.1000 208° Southwest 470 871 36.000  Level Gander Center
Sun 14:35:32 50.6833 -65.1833 202° Southwest 470 871 36.000  Level Gander Center
Sun 14:36:32 50.5667 -65.2833 209° Southwest 470 871 36.000  Level Gander Center
Sun 14:37:32 50.4500 -65.3833 209° Southwest 480 888 36.000  Level Gander Center
Sun 14:38:32 50.3333 -65.4667 205° Southwest 480 888 36.000  Level Gander Center
Sun 14:39:32 50.2167 -65.5667 209° Southwest 480 888 36.000  Level Gander Center
Sun 14:40:24 50.1000 -65.6500 205° Southwest 480 888 36.000  Level Moncton Center
Sun 14:41:24 49.9833 -65.7500 209° Southwest 480 888 36.000  Level Moncton Center
Sun 14:42:24 49.8667 -65.8333 205° Southwest 470 871 36.000  Level Moncton Center
Sun 14:43:24 49.7667 -65.9333 213° Southwest 470 871 36.000  Level Moncton Center
Sun 14:44:24 49.6333 -66.0333 206° Southwest 470 871 36.000  Level Moncton Center
Sun 14:45:24 49.5333 -66.1000 203° Southwest 470 871 36.000  Level Moncton Center
Sun 14:46:24 49.4167 -66.2000 209° Southwest 470 871 36.000  Level Moncton Center
Sun 14:47:24 49.3000 -66.2667 200° South 460 851 36.000  Level Moncton Center
Sun 14:48:24 49.1667 -66.3667 206° Southwest 460 851 36.000  Level Moncton Center
Sun 14:49:24 49.0500 -66.4667 209° Southwest 460 851 36.000  Level Moncton Center
Sun 14:50:24 48.9500 -66.5333 204° Southwest 460 851 36.000  Level Moncton Center
Sun 14:51:24 48.8167 -66.6333 206° Southwest 460 851 36.000  Level Moncton Center
Sun 14:52:24 48.7167 -66.7000 204° Southwest 460 851 36.000  Level Moncton Center
Sun 14:53:24 48.6000 -66.8000 210° Southwest 460 851 36.000  Level Moncton Center
Sun 14:54:24 48.4833 -66.8667 201° Southwest 460 851 36.000  Level Moncton Center
Sun 14:55:24 48.3500 -66.9667 207° Southwest 460 851 36.000  Level Moncton Center
Sun 14:56:24 48.2333 -67.0667 210° Southwest 460 851 36.000  Level Moncton Center
Sun 14:57:24 48.1167 -67.1333 201° Southwest 460 851 36.000  Level Moncton Center
Sun 14:58:24 48.0167 -67.2333 214° Southwest 460 851 36.000  Level Moncton Center
Sun 14:59:24 47.9000 -67.3000 201° Southwest 470 871 36.000  Level Moncton Center
Sun 15:00:24 47.7833 -67.3833 206° Southwest 460 851 36.000  Level Moncton Center
Sun 15:01:24 47.6667 -67.4833 210° Southwest 460 851 36.000  Level Moncton Center
Sun 15:02:24 47.5333 -67.5500 199° South 460 851 36.000  Level Moncton Center
Sun 15:03:24 47.4333 -67.6333 209° Southwest 460 851 36.000  Level Moncton Center
Sun 15:04:24 47.3167 -67.7333 210° Southwest 460 851 36.000  Level Moncton Center
Sun 15:05:24 47.2000 -67.8000 201° Southwest 460 851 36.000  Level Moncton Center
Sun 15:06:24 47.0833 -67.8833 206° Southwest 460 851 36.000  Level Moncton Center
Sun 15:07:24 46.9500 -67.9500 199° South 460 851 36.000  Level Moncton Center
Sun 15:08:24 46.8333 -68.0500 210° Southwest 460 851 36.000  Level Moncton Center
Sun 15:09:24 46.7167 -68.1167 201° Southwest 470 871 36.000  Level Moncton Center
Sun 15:10:24 46.6000 -68.1667 196° South 480 888 36.000  Level Moncton Center
Sun 15:11:24 46.4667 -68.2167 194° South 480 888 36.000  Level Moncton Center
Sun 15:12:24 46.3500 -68.2833 202° Southwest 480 888 36.000  Level Moncton Center
Sun 15:13:24 46.2167 -68.3167 190° South 470 871 36.000  Level Moncton Center
Sun 15:14:24 46.0833 -68.3833 199° South 480 888 36.000  Level Moncton Center
Sun 15:15:24 45.9500 -68.4167 190° South 470 871 36.000  Level Moncton Center
Sun 15:16:24 45.8333 -68.4833 202° Southwest 470 871 36.000  Level Moncton Center
Sun 15:17:24 45.7167 -68.5167 191° South 470 871 36.000  Level Moncton Center
Sun 15:18:24 45.5833 -68.5833 199° South 470 871 36.000  Level Moncton Center
Sun 15:19:24 45.4500 -68.6500 199° South 470 871 36.000  Level Moncton Center
Sun 15:20:24 45.3333 -68.6833 191° South 470 871 36.000  Level Moncton Center
Sun 15:21:24 45.2000 -68.7500 199° South 470 871 36.000  Level Moncton Center
Sun 15:22:24 45.0667 -68.7833 190° South 470 871 36.000  Level Moncton Center
Sun 15:23:24 44.9333 -68.8333 195° South 480 888 36.000  Level Moncton Center
Sun 15:24:24 44.8167 -68.8833 197° South 470 871 36.000  Level Moncton Center
Sun 15:25:24 44.7000 -68.9667 207° Southwest 470 871 36.000  Level Moncton Center
Sun 15:26:24 44.5833 -69.0500 207° Southwest 460 851 36.000  Level Moncton Center
Sun 15:27:24 44.4667 -69.1000 197° South 460 851 36.000  Level Moncton Center
Sun 15:28:24 44.3667 -69.2000 216° Southwest 460 851 36.000  Level Moncton Center
Sun 15:29:24 44.2500 -69.2833 207° Southwest 460 851 36.000  Level Moncton Center
Sun 15:30:24 44.1333 -69.3667 207° Southwest 460 851 36.000  Level Moncton Center
Sun 15:31:24 44.0167 -69.4167 197° South 460 851 36.000  Level Moncton Center
Sun 15:32:24 43.9000 -69.5000 207° Southwest 450 834 36.000  Level Moncton Center
Sun 15:33:24 43.7833 -69.5833 207° Southwest 450 834 36.000  Level Moncton Center
Sun 15:34:24 43.6833 -69.6667 211° Southwest 450 834 36.000  Level Moncton Center
Sun 15:35:24 43.5667 -69.7667 212° Southwest 430 797 36.000  Level Moncton Center
Sun 15:36:24 43.4833 -69.8833 225° Southwest 450 834 36.000  Level Moncton Center
Sun 15:37:24 43.4000 -69.9667 216° Southwest 440 814 36.000  Level Moncton Center
Sun 15:38:24 43.2833 -70.0667 212° Southwest 460 851 36.000  Level Moncton Center
Sun 15:39:24 43.1833 -70.1667 216° Southwest 450 834 36.000  Level Moncton Center
Sun 15:40:24 43.1000 -70.2833 226° Southwest 450 834 36.000  Level Moncton Center
Sun 15:41:24 42.9833 -70.3833 212° Southwest 450 834 36.000  Level Moncton Center
Sun 15:42:24 42.9000 -70.5167 230° Southwest 450 834 36.000  Level Moncton Center
Sun 15:43:24 42.7833 -70.6167 212° Southwest 450 834 36.000  Level Moncton Center
Sun 15:44:24 42.6833 -70.7167 216° Southwest 450 834 36.000  Level Moncton Center
Sun 15:45:24 42.6000 -70.8167 221° Southwest 450 834 36.000  Level Moncton Center
Sun 15:46:38 42.4989 -70.9336 220° Southwest 456 845 36.000  Level Boston Center
Sun 15:47:38 42.4003 -71.0428 219° Southwest 456 845 36.000  Level Boston Center
Sun 15:48:39 42.3014 -71.1517 219° Southwest 461 855 36.000  Level Boston Center
Sun 15:49:39 42.2025 -71.2603 219° Southwest 461 855 36.000  Level Boston Center
Sun 15:50:40 42.1056 -71.3656 219° Southwest 467 864 36.000  Level Boston Center
Sun 15:51:39 42.0086 -71.4761 220° Southwest 467 864 36.000  Level Boston Center
Sun 15:52:39 41.8950 -71.5894 217° Southwest 467 864 36.000  Level Boston Center
Sun 15:53:39 41.7978 -71.6967 219° Southwest 467 864 36.000  Level Boston Center
Sun 15:54:40 41.6983 -71.8033 219° Southwest 461 855 36.000  Level Boston Center
Sun 15:55:40 41.5925 -71.8989 214° Southwest 461 855 36.000  Level Boston Center
Sun 15:56:38 41.5011 -71.9828 215° Southwest 456 845 36.000  Level Boston Center
Sun 15:57:39 41.3975 -72.0831 216° Southwest 456 845 36.000  Level Boston Center
Sun 15:58:39 41.2933 -72.1775 214° Southwest 456 845 36.000  Level Boston Center
Sun 15:59:40 41.1894 -72.2747 215° Southwest 461 855 36.000  Level Boston Center
Sun 16:00:40 41.0853 -72.3714 215° Southwest 461 855 36.000  Level Boston Center
Sun 16:01:38 40.9792 -72.4647 214° Southwest 466 863 36.000  Level Boston Center
Sun 16:02:40 40.8769 -72.5608 215° Southwest 466 863 36.000  Level Boston Center
Sun 16:03:40 40.7725 -72.6594 216° Southwest 466 863 36.000  Level Boston Center
Sun 16:04:41 40.6661 -72.7467 212° Southwest 466 863 36.000  Level Boston Center
Sun 16:05:39 40.5617 -72.8417 215° Southwest 466 863 36.000  Level Boston Center
Sun 16:06:39 40.4550 -72.9364 214° Southwest 466 863 36.000  Level Boston Center
Sun 16:07:40 40.3461 -73.0308 213° Southwest 466 863 36.000  Level Boston Center
Sun 16:08:40 40.2456 -73.1225 215° Southwest 466 863 36.000  Level Boston Center
Sun 16:09:40 40.1389 -73.2217 215° Southwest 466 863 36.000  Level Boston Center
Sun 16:11:19 39.9556 -73.3856 214° Southwest 473 875 36.000  Level Washington Center
Sun 16:12:19 39.8592 -73.4669 213° Southwest 467 864 36.000  Level Washington Center
Sun 16:13:17 39.7544 -73.5564 213° Southwest 467 864 36.000  Level Washington Center
Sun 16:14:18 39.6478 -73.6511 214° Southwest 467 864 36.000  Level Washington Center
Sun 16:15:19 39.5428 -73.7428 214° Southwest 467 864 36.000  Level Washington Center
Sun 16:16:19 39.4317 -73.8369 213° Southwest 467 864 36.000  Level Washington Center
Sun 16:17:17 39.3311 -73.9281 215° Southwest 462 856 36.000  Level Washington Center
Sun 16:18:17 39.2197 -74.0189 212° Southwest 462 856 36.000  Level Washington Center
Sun 16:19:18 39.1144 -74.1122 215° Southwest 462 856 36.000  Level Washington Center
Sun 16:20:19 39.0053 -74.2053 214° Southwest 467 864 36.000  Level Washington Center
Sun 16:21:19 38.8978 -74.2928 212° Southwest 467 864 36.000  Level Washington Center
Sun 16:22:19 38.7903 -74.3850 214° Southwest 467 864 36.000  Level Washington Center
Sun 16:23:17 38.6828 -74.4775 214° Southwest 467 864 36.000  Level Washington Center
Sun 16:24:18 38.5731 -74.5667 212° Southwest 472 874 36.000  Level Washington Center
Sun 16:25:19 38.4633 -74.6583 213° Southwest 478 885 36.000  Level Washington Center
Sun 16:26:17 38.3536 -74.7497 213° Southwest 478 885 36.000  Level Washington Center
Sun 16:27:17 38.2478 -74.8408 214° Southwest 478 885 36.000  Level Washington Center
Sun 16:28:19 38.1400 -74.9317 214° Southwest 478 885 36.000  Level Washington Center
Sun 16:29:20 38.0300 -75.0225 213° Southwest 478 885 36.000  Level Washington Center
Sun 16:30:17 37.9197 -75.1128 213° Southwest 478 885 36.000  Level Washington Center
Sun 16:31:18 37.8117 -75.2053 214° Southwest 478 885 36.000  Level Washington Center
Sun 16:32:19 37.7036 -75.2925 213° Southwest 478 885 36.000  Level Washington Center
Sun 16:33:17 37.5931 -75.3794 212° Southwest 478 885 36.000  Level Washington Center
Sun 16:34:18 37.4828 -75.4689 213° Southwest 478 885 36.000  Level Washington Center
Sun 16:35:18 37.3744 -75.5578 213° Southwest 478 885 36.000  Level Washington Center
Sun 16:36:19 37.2658 -75.6442 212° Southwest 478 885 36.000  Level Washington Center
Sun 16:37:18 37.1553 -75.7325 212° Southwest 478 885 36.000  Level Washington Center
Sun 16:38:18 37.0444 -75.8156 211° Southwest 478 885 36.000  Level Washington Center
Sun 16:39:19 36.9192 -75.8778 202° Southwest 472 874 36.000  Level Washington Center
Sun 16:40:19 36.8022 -75.9394 203° Southwest 472 874 36.000  Level Washington Center
Sun 16:41:17 36.6644 -76.0089 202° Southwest 472 874 36.000  Level Washington Center
Sun 16:42:17 36.5514 -76.0703 204° Southwest 472 874 36.000  Level Washington Center
Sun 16:43:18 36.4322 -76.1317 203° Southwest 472 874 36.000  Level Washington Center
Sun 16:44:18 36.3131 -76.1925 202° Southwest 472 874 36.000  Level Washington Center
Sun 16:45:16 36.1958 -76.2536 203° Southwest 467 864 36.000  Level Washington Center
Sun 16:46:17 36.0744 -76.3142 202° Southwest 467 864 36.000  Level Washington Center
Sun 16:47:17 35.9531 -76.3747 202° Southwest 467 864 36.000  Level Washington Center
Sun 16:48:18 35.8358 -76.4350 203° Southwest 467 864 36.000  Level Washington Center
Sun 16:49:19 35.7144 -76.4925 201° Southwest 467 864 36.000  Level Washington Center
Sun 16:50:19 35.5931 -76.5525 202° Southwest 472 874 36.000  Level Washington Center
Sun 16:51:17 35.4714 -76.6122 202° Southwest 472 874 36.000  Level Washington Center
Sun 16:52:19 35.3542 -76.6744 203° Southwest 472 874 36.000  Level Washington Center
Sun 16:53:19 35.2347 -76.7364 203° Southwest 472 874 36.000  Level Washington Center
Sun 16:54:17 35.1131 -76.7956 202° Southwest 466 863 36.000  Level Washington Center
Sun 16:55:18 35.0039 -76.8497 202° Southwest 466 863 36.000  Level Washington Center
Sun 16:56:18 34.8864 -76.9114 203° Southwest 466 863 36.000  Level Washington Center
Sun 16:57:17 34.7647 -76.9700 202° Southwest 466 863 36.000  Level Washington Center
Sun 16:58:17 34.6472 -77.0286 202° Southwest 471 872 36.000  Level Washington Center
Sun 16:59:18 34.5256 -77.0894 202° Southwest 471 872 36.000  Level Washington Center
Sun 17:00:17 34.4039 -77.1450 201° Southwest 471 872 36.000  Level Washington Center
Sun 17:01:59 34.1858 -77.2522 202° Southwest 469 869 36.000  Level Jacksonville Center
Sun 17:02:59 34.0633 -77.3103 201° Southwest 469 869 36.000  Level Jacksonville Center
Sun 17:03:59 33.9408 -77.3708 202° Southwest 469 869 36.000  Level Jacksonville Center
Sun 17:04:59 33.8183 -77.4283 201° Southwest 475 880 36.000  Level Jacksonville Center
Sun 17:05:59 33.6914 -77.4886 202° Southwest 485 898 36.000  Level Jacksonville Center
Sun 17:06:59 33.5686 -77.5461 201° Southwest 485 898 36.000  Level Jacksonville Center
Sun 17:07:59 33.4461 -77.6058 202° Southwest 485 898 36.000  Level Jacksonville Center
Sun 17:08:59 33.3211 -77.6653 202° Southwest 485 898 36.000  Level Jacksonville Center
Sun 17:09:59 33.1964 -77.7247 202° Southwest 485 898 36.000  Level Jacksonville Center
Sun 17:10:59 33.0756 -77.7814 201° Southwest 480 888 36.000  Level Jacksonville Center
Sun 17:11:59 32.9486 -77.8406 201° Southwest 480 888 36.000  Level Jacksonville Center
Sun 17:12:59 32.8258 -77.8994 202° Southwest 485 898 36.000  Level Jacksonville Center
Sun 17:13:59 32.6986 -77.9558 200° South 485 898 36.000  Level Jacksonville Center
Sun 17:14:59 32.5736 -78.0144 202° Southwest 485 898 36.000  Level Jacksonville Center
Sun 17:15:59 32.4483 -78.0728 201° Southwest 485 898 36.000  Level Jacksonville Center
Sun 17:16:59 32.3214 -78.1336 202° Southwest 485 898 36.000  Level Jacksonville Center
Sun 17:17:59 32.1981 -78.1889 201° Southwest 485 898 36.000  Level Jacksonville Center
Sun 17:18:59 32.0833 -78.2464 203° Southwest 485 898 36.000  Level Jacksonville Center
Sun 17:19:59 31.9561 -78.3042 201° Southwest 485 898 36.000  Level Jacksonville Center
Sun 17:20:59 31.8331 -78.3617 202° Southwest 491 909 36.000  Level Jacksonville Center
Sun 17:21:59 31.7075 -78.4192 201° Southwest 486 900 36.000  Level Jacksonville Center
Sun 17:22:59 31.5844 -78.4761 202° Southwest 479 887 36.000  Level Jacksonville Center
Sun 17:23:59 31.4589 -78.5308 200° South 484 896 36.000  Level Jacksonville Center
Sun 17:24:59 31.3356 -78.5878 202° Southwest 484 896 36.000  Level Jacksonville Center
Sun 17:25:59 31.2122 -78.6419 201° Southwest 484 896 36.000  Level Jacksonville Center
Sun 17:26:59 31.0847 -78.7033 202° Southwest 484 896 36.000  Level Jacksonville Center
Sun 17:27:59 30.9633 -78.7550 200° South 484 896 36.000  Level Jacksonville Center
Sun 17:29:41 30.7456 -78.8556 202° Southwest 472 874 36.000  Level Miami Center
Sun 17:30:41 30.6178 -78.9111 201° Southwest 480 888 36.000  Level Miami Center
Sun 17:31:41 30.4942 -78.9567 198° South 480 888 36.000  Level Miami Center
Sun 17:32:41 30.3581 -79.0069 198° South 487 901 36.000  Level Miami Center
Sun 17:33:41 30.2383 -79.0572 200° South 487 901 36.000  Level Miami Center
Sun 17:34:41 30.1106 -79.1050 198° South 487 901 36.000  Level Miami Center
Sun 17:35:41 29.9867 -79.1622 202° Southwest 487 901 36.000  Level Miami Center
Sun 17:36:41 29.8586 -79.2097 198° South 482 893 36.000  Level Miami Center
Sun 17:37:41 29.7328 -79.2572 198° South 482 893 36.000  Level Miami Center
Sun 17:38:41 29.6067 -79.3069 199° South 487 901 36.000  Level Miami Center
Sun 17:39:41 29.4786 -79.3542 198° South 487 901 36.000  Level Miami Center
Sun 17:40:41 29.3528 -79.4036 199° South 487 901 36.000  Level Miami Center
Sun 17:41:41 29.2289 -79.4508 198° South 482 893 36.000  Level Miami Center
Sun 17:42:41 29.1006 -79.4975 198° South 482 893 36.000  Level Miami Center
Sun 17:43:41 28.9767 -79.5419 197° South 482 893 36.000  Level Miami Center
Sun 17:44:41 28.8528 -79.5911 199° South 477 884 36.000  Level Miami Center
Sun 17:45:53 28.7267 -79.6378 198° South 477 884 36.000  Level Miami Center
Sun 17:46:53 28.5794 -79.6933 198° South 477 884 36.000  Level Miami Center
Sun 17:47:53 28.4553 -79.7419 199° South 477 884 36.000  Level Miami Center
Sun 17:48:53 28.3250 -79.7858 197° South 477 884 36.000  Level Miami Center
Sun 17:49:53 28.2008 -79.8344 199° South 477 884 36.000  Level Miami Center
Sun 17:50:53 28.0747 -79.8806 198° South 477 884 36.000  Level Miami Center
Sun 17:51:53 27.9528 -79.9267 198° South 477 884 36.000  Level Miami Center
Sun 17:52:53 27.8200 -79.9747 198° South 482 893 36.000  Level Miami Center
Sun 17:53:53 27.6981 -80.0208 199° South 481 892 36.000  Level Miami Center
Sun 17:54:53 27.5717 -80.0686 199° South 481 892 36.000  Level Miami Center
Sun 17:55:53 27.4456 -80.1144 198° South 481 892 36.000  Level Miami Center
Sun 17:56:53 27.3169 -80.1597 197° South 481 892 36.000  Level Miami Center
Sun 17:57:53 27.1906 -80.2075 199° South 481 892 36.000  Level Miami Center
Sun 17:58:53 27.0644 -80.2531 198° South 486 900 36.000  Level Miami Center
Sun 17:59:53 26.9378 -80.3006 198° South 486 900 36.000  Level Miami Center
Sun 18:00:53 26.8094 -80.3481 198° South 486 900 36.000  Level Miami Center
Sun 18:01:53 26.6956 -80.3911 199° South 486 900 36.000  Level Miami Center
Sun 18:02:53 26.5522 -80.4425 198° South 486 900 36.000  Level Miami Center
Sun 18:03:53 26.4364 -80.4853 198° South 486 900 36.000  Level Miami Center
Sun 18:04:53 26.2953 -80.5344 197° South 486 900 36.000  Level Miami Center
Sun 18:05:53 26.1794 -80.5747 197° South 486 900 36.000  Level Miami Center
Sun 18:06:53 26.0647 -80.6450 209° Southwest 486 900 36.000  Level Miami Center
Sun 18:07:53 25.9661 -80.7392 221° Southwest 477 884 36.000  Level Miami Center
Sun 18:08:53 25.8656 -80.8350 221° Southwest 472 874 36.000  Level Miami Center
Sun 18:09:53 25.7669 -80.9264 220° Southwest 472 874 36.000  Level Miami Center
Sun 18:10:53 25.6556 -81.0264 219° Southwest 477 884 36.000  Level Miami Center
Sun 18:11:53 25.5569 -81.1172 220° Southwest 471 872 36.000  Level Miami Center
Sun 18:12:53 25.4558 -81.2103 220° Southwest 471 872 36.000  Level Miami Center
Sun 18:13:53 25.3550 -81.3033 220° Southwest 466 863 36.000 -100 Level Miami Center
Sun 18:14:53 25.2561 -81.3939 220° Southwest 466 863 35.800 -600 Descending Miami Center
Sun 18:15:53 25.1553 -81.4842 219° Southwest 466 863 34.800 -950 Descending Miami Center
Sun 18:16:53 25.0564 -81.5744 220° Southwest 466 863 33.900 -1.000 Descending Miami Center
Sun 18:17:53 24.9553 -81.6667 220° Southwest 466 863 32.800 -1.000 Descending Miami Center
Sun 18:18:53 24.8692 -81.7433 219° Southwest 459 850 31.900 -950 Descending Miami Center
Sun 18:19:53 24.7742 -81.8333 221° Southwest 459 850 30.900 -1.100 Descending Miami Center
Sun 18:20:53 24.6708 -81.9253 219° Southwest 448 830 29.700 -1.250 Descending Miami Center
Sun 18:21:53 24.5764 -82.0058 218° Southwest 438 811 28.400 -1.300 Descending Miami Center
Sun 18:22:53 24.4836 -82.0886 219° Southwest 433 801 27.100 -1.300 Descending Miami Center
Sun 18:23:53 24.3953 -82.1669 219° Southwest 433 801 25.800 -1.300 Descending Miami Center
Sun 18:24:53 24.3089 -82.2453 220° Southwest 414 766 24.500 -1.300 Descending Miami Center
Sun 18:25:53 24.2308 -82.3286 224° Southwest 403 747 23.200 -1.250 Descending Miami Center
Sun 18:26:53 24.1428 -82.3931 214° Southwest 391 724 22.000 -1.250 Descending Miami Center
Sun 18:27:53 24.0628 -82.4667 220° Southwest 386 715 20.700 -1.250 Descending Miami Center
Sun 18:28:53 23.9769 -82.5242 211° Southwest 381 705 19.500 -1.200 Descending Miami Center
Sun 18:30:00 23.8430 -82.4981 170° South  Level FlightAware Approximate
Sun 18:37:00 22.9961 -82.4000 180° South  Level FlightAware Approximate
Sun 18:38:00 22.9891 -82.4091 180° South  Level Estimated
Sun 18:39:00 22.9891 -82.4091 180° South  Level Estimated
Sun 18:40:00 22.9891 -82.4091 180° South  Level Estimated
Sun 18:41:00 22.9891 -82.4091 180° South  Level Estimated
Sun 18:42:00 22.9891 -82.4091 180° South  Level Estimated
Sun 18:43:00 22.9891 -82.4091 180° South  Level Estimated
Sun 18:44:00 22.9891 -82.4091 180° South  Level Estimated
Sun 18:45:00 22.9891 -82.4091 180° South  Level Estimated
Sun 18:46:00 22.9891 -82.4091 180° South  Level Estimated
Sun 18:47:00 22.9891 -82.4091 180° South  Level Estimated
Sun 18:48:00 22.9891 -82.4091 180° South  Level Estimated
Sun 18:49:00 22.9891 -82.4091 180° South  Level Estimated
Sun 18:50:00 22.9891 -82.4091 180° South  Level Estimated
Sun 18:51:00 22.9891 -82.4091 180° South  Level Estimated
Sun 18:52:00 22.9891 -82.4091 180° South  Level Estimated
Sun 18:53:00 22.9891 -82.4091 180° South  Level Estimated
Sun 18:54:00 22.9891 -82.4091 180° South  Level Estimated
Sun 18:55:00 22.9891 -82.4091 180° South  Level Estimated
Sun 18:56:00 22.9891 -82.4091 180° South  Level Estimated
Sun 18:57:00 22.9891 -82.4091 180° South  Level Estimated
Sun 18:58:00 22.9891 -82.4091 180° South  Level Estimated

Login

Don't have an account? Register now (free) for customized features, flight alerts, and more!